^^
Datos históricos de la estación: Murcia-Puente Tocinos
Diario Informe para Enero 21, 2020 Unidades:  Métrico    Inglés   Ambas
Diario Semanal Mensual Anual Configurable
  Máximo: Mínimo: Media:
Temperatura: 11.8 °C 7.7 °C 9.2 °C
Punto de rocio: 8.7 °C 6.9 °C 7.7 °C
Humedad: 97% 77% 91%
Velocidad viento: 16.1km/h 0.0km/h 7.7km/h
Racha viento: 32.2km/h - -
Viento- - SSW
Presión: 1016.2 hPa 1010.2 hPa -
Precipitación: 51.6 mm    
Historical Graphs
 
 
Tabla de datos para Enero 21, 2020
Hora Temperatura Punto de rocio Presión Viento Velocidad viento Racha viento Humedad Intensidad lluvia(por hora) Nubes
00:00 7.7 °C 6.9 °C 1015.7 hPa SSW 9.7 km/h 11.3 km/h 95% 0.2 mm RA
00:05 7.7 °C 6.9 °C 1015.7 hPa SSW 8.0 km/h 16.1 km/h 95% 0.2 mm -RA
00:10 7.7 °C 6.9 °C 1015.8 hPa South 8.0 km/h 12.9 km/h 95% 0.0 mm -RA
00:15 7.7 °C 6.9 °C 1015.8 hPa South 8.0 km/h 11.3 km/h 95% 0.0 mm BKN
00:20 7.7 °C 6.9 °C 1015.8 hPa SSW 8.0 km/h 14.5 km/h 95% 0.0 mm -RA
00:25 7.8 °C 7.1 °C 1015.7 hPa South 9.7 km/h 12.9 km/h 95% 0.0 mm BKN
00:30 7.8 °C 7.1 °C 1015.7 hPa South 9.7 km/h 14.5 km/h 95% 0.0 mm -RA
00:35 7.8 °C 6.9 °C 1015.7 hPa SSW 9.7 km/h 12.9 km/h 94% 0.0 mm BKN
00:40 7.8 °C 6.9 °C 1015.4 hPa SSW 9.7 km/h 16.1 km/h 94% 0.0 mm -RA
00:45 7.8 °C 6.9 °C 1015.4 hPa SSW 9.7 km/h 16.1 km/h 94% 0.0 mm BKN
00:50 7.8 °C 6.9 °C 1015.4 hPa SSW 9.7 km/h 16.1 km/h 94% 0.0 mm -RA
00:55 7.8 °C 6.9 °C 1015.0 hPa SW 9.7 km/h 14.5 km/h 94% 0.0 mm BKN
01:00 7.8 °C 6.9 °C 1015.0 hPa SW 9.7 km/h 12.9 km/h 94% 0.0 mm BKN
01:05 7.8 °C 6.9 °C 1015.0 hPa SW 8.0 km/h 12.9 km/h 94% 0.0 mm BKN
01:10 7.8 °C 6.9 °C 1014.5 hPa SW 8.0 km/h 12.9 km/h 94% 0.0 mm -RA
01:15 7.8 °C 6.9 °C 1014.5 hPa SSW 9.7 km/h 16.1 km/h 94% 0.0 mm BKN
01:20 7.8 °C 6.9 °C 1014.5 hPa SSW 9.7 km/h 16.1 km/h 94% 0.0 mm BKN
01:25 7.8 °C 6.9 °C 1013.9 hPa SSW 11.3 km/h 17.7 km/h 94% 0.3 mm RA
01:30 7.8 °C 6.9 °C 1013.9 hPa SSW 11.3 km/h 14.5 km/h 94% 0.3 mm RA
01:35 7.8 °C 6.9 °C 1013.9 hPa South 11.3 km/h 20.9 km/h 94% 0.0 mm BKN
01:40 7.7 °C 6.9 °C 1013.8 hPa South 11.3 km/h 17.7 km/h 95% 0.0 mm BKN
01:45 7.7 °C 6.9 °C 1013.8 hPa SSW 12.9 km/h 14.5 km/h 95% 0.0 mm BKN
01:50 7.8 °C 7.1 °C 1013.8 hPa SW 12.9 km/h 14.5 km/h 95% 0.0 mm -RA
01:55 7.8 °C 7.1 °C 1013.6 hPa SW 8.0 km/h 14.5 km/h 95% 0.0 mm BKN
02:00 7.8 °C 7.1 °C 1013.6 hPa SW 8.0 km/h 12.9 km/h 95% 0.0 mm BKN
02:05 7.8 °C 7.1 °C 1013.6 hPa SW 9.7 km/h 14.5 km/h 95% 0.0 mm BKN
02:10 7.8 °C 7.1 °C 1013.1 hPa SSW 9.7 km/h 14.5 km/h 95% 0.0 mm -RA
02:15 7.9 °C 7.2 °C 1013.1 hPa SW 7.6 km/h 11.1 km/h 95% 0.3 mm BKN
02:20 7.9 °C 7.0 °C 1013.1 hPa SW 8.0 km/h 9.7 km/h 94% 0.0 mm BKN
02:25 7.9 °C 7.0 °C 1013.1 hPa SW 8.0 km/h 9.7 km/h 94% 0.0 mm BKN
02:30 7.9 °C 7.0 °C 1013.1 hPa SSW 8.0 km/h 12.9 km/h 94% 0.0 mm BKN
02:35 7.9 °C 7.2 °C 1013.1 hPa South 8.0 km/h 11.3 km/h 95% 0.0 mm BKN
02:40 7.9 °C 7.0 °C 1013.1 hPa South 8.0 km/h 24.1 km/h 94% 0.0 mm BKN
02:45 7.8 °C 7.1 °C 1013.1 hPa SSE 11.3 km/h 22.5 km/h 95% 0.0 mm BKN
02:50 7.8 °C 7.1 °C 1013.1 hPa SSW 11.3 km/h 14.5 km/h 95% 0.0 mm BKN
02:55 7.7 °C 6.9 °C 1012.9 hPa WSW 8.0 km/h 16.1 km/h 95% 0.3 mm RA
03:00 7.8 °C 7.1 °C 1012.9 hPa SW 8.0 km/h 11.3 km/h 95% 0.0 mm RA
03:05 7.9 °C 7.2 °C 1012.9 hPa SW 8.0 km/h 12.9 km/h 95% 0.0 mm BKN
03:10 7.9 °C 7.2 °C 1012.6 hPa SW 8.0 km/h 11.3 km/h 95% 0.0 mm BKN
03:15 7.9 °C 7.2 °C 1012.6 hPa SW 8.0 km/h 12.9 km/h 95% 0.0 mm BKN
03:20 7.9 °C 7.2 °C 1012.6 hPa SSW 8.0 km/h 16.1 km/h 95% 0.0 mm BKN
03:25 7.9 °C 7.2 °C 1012.1 hPa SSW 8.0 km/h 12.9 km/h 95% 0.0 mm BKN
03:30 7.9 °C 7.2 °C 1012.1 hPa SSW 8.0 km/h 12.9 km/h 95% 0.0 mm BKN
03:35 8.0 °C 7.2 °C 1012.1 hPa SSW 8.0 km/h 11.3 km/h 95% 0.0 mm BKN
03:40 7.9 °C 7.2 °C 1011.7 hPa SSW 8.0 km/h 14.5 km/h 95% 0.0 mm BKN
03:45 8.0 °C 7.2 °C 1011.7 hPa WSW 8.0 km/h 12.9 km/h 95% 0.0 mm BKN
03:50 8.1 °C 7.3 °C 1011.7 hPa WNW 8.0 km/h 8.0 km/h 95% 0.0 mm BKN
03:55 8.2 °C 7.6 °C 1011.8 hPa West 3.2 km/h 14.5 km/h 96% 0.0 mm BKN
04:00 8.3 °C 7.7 °C 1011.8 hPa WNW 3.2 km/h 14.5 km/h 96% 0.0 mm BKN
04:05 8.3 °C 7.6 °C 1011.8 hPa North 8.0 km/h 11.3 km/h 95% 0.0 mm BKN
04:10 8.3 °C 7.6 °C 1011.5 hPa NW 8.0 km/h 9.7 km/h 95% 0.0 mm BKN
04:15 8.3 °C 7.6 °C 1011.5 hPa NNE 4.8 km/h 25.7 km/h 95% 0.3 mm RA
04:20 8.2 °C 7.4 °C 1011.5 hPa SE 4.8 km/h 32.2 km/h 95% 0.0 mm RA
04:25 8.2 °C 7.4 °C 1011.4 hPa South 16.1 km/h 24.1 km/h 95% 0.0 mm BKN
04:30 8.2 °C 7.4 °C 1011.4 hPa SW 16.1 km/h 20.9 km/h 95% 0.0 mm BKN
04:35 8.2 °C 7.4 °C 1011.4 hPa WSW 11.3 km/h 12.9 km/h 95% 0.0 mm BKN
04:40 8.3 °C 7.6 °C 1010.9 hPa WSW 11.3 km/h 16.1 km/h 95% 0.0 mm BKN
04:45 8.3 °C 7.6 °C 1010.9 hPa WSW 9.7 km/h 24.1 km/h 95% 0.0 mm BKN
04:50 8.2 °C 7.4 °C 1010.9 hPa WSW 9.7 km/h 24.1 km/h 95% 0.0 mm BKN
04:55 8.2 °C 7.4 °C 1010.9 hPa WSW 12.9 km/h 17.7 km/h 95% 0.0 mm BKN
05:00 8.2 °C 7.3 °C 1010.9 hPa WSW 12.9 km/h 14.5 km/h 94% 0.0 mm BKN
05:05 8.2 °C 7.3 °C 1010.9 hPa WSW 9.7 km/h 16.1 km/h 94% 0.0 mm BKN
05:10 8.2 °C 7.3 °C 1010.6 hPa SW 9.7 km/h 12.9 km/h 94% 0.0 mm BKN
05:15 8.2 °C 7.3 °C 1010.6 hPa SW 8.0 km/h 11.3 km/h 94% 0.0 mm BKN
05:20 8.2 °C 7.3 °C 1010.6 hPa SW 8.0 km/h 14.5 km/h 94% 0.0 mm BKN
05:25 8.2 °C 7.3 °C 1010.8 hPa SW 9.7 km/h 14.5 km/h 94% 0.0 mm BKN
05:30 8.2 °C 7.1 °C 1010.8 hPa WSW 9.7 km/h 19.3 km/h 93% 0.0 mm BKN
05:35 8.2 °C 7.1 °C 1010.8 hPa WSW 8.0 km/h 11.3 km/h 93% 0.0 mm BKN
05:40 8.2 °C 7.1 °C 1010.9 hPa WSW 8.0 km/h 12.9 km/h 93% 0.0 mm BKN
05:45 8.2 °C 7.1 °C 1010.9 hPa SW 4.8 km/h 9.7 km/h 93% 0.0 mm BKN
05:50 8.2 °C 7.1 °C 1010.9 hPa South 4.8 km/h 12.9 km/h 93% 0.5 mm RA
05:55 8.1 °C 7.2 °C 1011.1 hPa SSE 8.0 km/h 12.9 km/h 94% 0.5 mm RA
06:00 8.1 °C 7.2 °C 1011.1 hPa SSE 8.0 km/h 12.9 km/h 94% 0.0 mm BKN
06:05 8.0 °C 7.1 °C 1011.1 hPa SSE 8.0 km/h 12.9 km/h 94% 0.0 mm BKN
06:10 8.0 °C 7.1 °C 1011.1 hPa SSW 8.0 km/h 14.5 km/h 94% 0.0 mm BKN
06:15 8.0 °C 7.2 °C 1011.1 hPa SSW 8.0 km/h 8.0 km/h 95% 0.0 mm BKN
06:20 8.0 °C 7.3 °C 1011.1 hPa SSW 8.0 km/h 8.0 km/h 95% 0.0 mm BKN
06:25 8.1 °C 7.3 °C 1011.0 hPa SSW 3.2 km/h 8.0 km/h 95% 0.0 mm BKN
06:30 8.1 °C 7.3 °C 1011.0 hPa SW 3.2 km/h 9.7 km/h 95% 0.0 mm BKN
06:35 8.2 °C 7.4 °C 1011.0 hPa WNW 3.2 km/h 9.7 km/h 95% 0.0 mm BKN
06:40 8.2 °C 7.4 °C 1010.8 hPa NW 3.2 km/h 9.7 km/h 95% 0.0 mm BKN
06:45 8.2 °C 7.4 °C 1010.8 hPa WNW 3.2 km/h 8.0 km/h 95% 0.0 mm BKN
06:50 8.2 °C 7.4 °C 1010.8 hPa West 3.2 km/h 8.0 km/h 95% 0.0 mm BKN
06:55 8.2 °C 7.4 °C 1010.5 hPa West 3.2 km/h 8.0 km/h 95% 0.0 mm BKN
07:00 8.1 °C 7.4 °C 1010.5 hPa WSW 3.2 km/h 9.7 km/h 95% 0.0 mm BKN
07:05 8.1 °C 7.3 °C 1010.5 hPa SW 8.0 km/h 12.9 km/h 95% 0.0 mm BKN
07:10 8.1 °C 7.3 °C 1010.2 hPa SW 8.0 km/h 11.3 km/h 95% 0.0 mm BKN
07:15 8.2 °C 7.4 °C 1010.2 hPa SW 8.0 km/h 11.3 km/h 95% 0.2 mm RA
07:20 8.2 °C 7.4 °C 1010.2 hPa WSW 8.0 km/h 4.8 km/h 95% 0.2 mm -RA
07:25 8.2 °C 7.4 °C 1010.7 hPa WSW 3.2 km/h 11.3 km/h 95% 0.0 mm -RA
07:30 8.2 °C 7.4 °C 1010.7 hPa SSW 3.2 km/h 12.9 km/h 95% 0.0 mm -RA
07:35 8.2 °C 7.4 °C 1010.7 hPa South 9.7 km/h 12.9 km/h 95% 0.0 mm -RA
07:40 8.2 °C 7.4 °C 1010.7 hPa SSW 9.7 km/h 12.9 km/h 95% 0.0 mm -RA
07:45 8.2 °C 7.4 °C 1010.7 hPa South 8.0 km/h 11.3 km/h 95% 0.0 mm -RA
07:50 8.2 °C 7.6 °C 1010.7 hPa South 8.0 km/h 11.3 km/h 96% 0.0 mm BKN
07:55 8.2 °C 7.6 °C 1010.7 hPa SSW 8.0 km/h 11.3 km/h 96% 0.0 mm BKN
08:00 8.2 °C 7.6 °C 1010.7 hPa SSW 8.0 km/h 8.0 km/h 96% 0.0 mm -RA
08:05 8.3 °C 7.7 °C 1010.7 hPa SSW 3.2 km/h 9.7 km/h 96% 0.0 mm -RA
08:10 8.2 °C 7.6 °C 1011.1 hPa SW 3.9 km/h 11.1 km/h 96% 24.0 mm BKN
08:15 8.2 °C 7.6 °C 1011.1 hPa SSW 9.7 km/h 12.9 km/h 96% 0.0 mm BKN
08:20 8.2 °C 7.6 °C 1011.1 hPa South 9.7 km/h 16.1 km/h 96% 0.0 mm -RA
08:25 8.2 °C 7.6 °C 1010.9 hPa South 9.7 km/h 22.5 km/h 96% 0.0 mm SCT
08:30 8.1 °C 7.5 °C 1010.9 hPa SSW 9.7 km/h 20.9 km/h 96% 0.0 mm -RA
08:35 8.1 °C 7.5 °C 1010.9 hPa South 12.9 km/h 20.9 km/h 96% 0.0 mm SCT
08:40 8.1 °C 7.5 °C 1011.0 hPa South 12.9 km/h 19.3 km/h 96% 0.0 mm -RA
08:45 8.1 °C 7.5 °C 1011.0 hPa SSW 11.3 km/h 12.9 km/h 96% 0.0 mm SCT
08:50 8.1 °C 7.5 °C 1011.0 hPa SW 10.3 km/h 16.7 km/h 96% 23.8 mm OVC
08:55 8.1 °C 7.5 °C 1011.0 hPa SW 9.7 km/h 16.1 km/h 96% 0.3 mm RA
09:00 8.1 °C 7.5 °C 1011.0 hPa SSW 9.7 km/h 22.5 km/h 96% 0.0 mm RA
09:05 8.1 °C 7.5 °C 1011.0 hPa South 11.3 km/h 20.9 km/h 96% 0.0 mm SCT
09:10 8.1 °C 7.5 °C 1011.1 hPa SSW 11.3 km/h 11.3 km/h 96% 0.0 mm OVC
09:15 8.1 °C 7.7 °C 1011.1 hPa SW 8.0 km/h 9.7 km/h 97% 0.0 mm SCT
09:20 8.1 °C 7.7 °C 1011.1 hPa SW 8.0 km/h 14.5 km/h 97% 0.0 mm OVC
09:25 8.1 °C 7.7 °C 1011.2 hPa WSW 8.0 km/h 11.3 km/h 97% 0.0 mm BKN
09:30 8.2 °C 7.7 °C 1011.2 hPa SW 8.0 km/h 14.5 km/h 97% 0.0 mm OVC
09:35 8.2 °C 7.8 °C 1011.2 hPa South 9.7 km/h 19.3 km/h 97% 0.0 mm BKN
09:40 8.1 °C 7.7 °C 1011.2 hPa South 9.7 km/h 27.4 km/h 97% 0.0 mm OVC
09:45 8.1 °C 7.7 °C 1011.2 hPa South 14.0 km/h 20.4 km/h 97% 0.3 mm BKN
09:50 8.1 °C 7.7 °C 1011.2 hPa South 14.5 km/h 27.4 km/h 97% 0.0 mm BKN
09:55 8.1 °C 7.7 °C 1011.4 hPa South 16.1 km/h 24.1 km/h 97% 0.0 mm BKN
10:00 8.1 °C 7.7 °C 1011.4 hPa SSW 16.1 km/h 24.1 km/h 97% 0.0 mm BKN
10:05 8.1 °C 7.7 °C 1011.4 hPa SSW 12.9 km/h 22.5 km/h 97% 0.0 mm BKN
10:10 8.1 °C 7.7 °C 1011.4 hPa SSW 12.9 km/h 22.5 km/h 97% 0.0 mm BKN
10:15 8.1 °C 7.7 °C 1011.4 hPa SSW 14.5 km/h 22.5 km/h 97% 0.0 mm BKN
10:20 8.1 °C 7.7 °C 1011.4 hPa SW 14.5 km/h 25.7 km/h 97% 0.3 mm RA
10:25 8.1 °C 7.7 °C 1011.7 hPa SSW 14.5 km/h 25.7 km/h 97% 0.3 mm RA
10:30 8.1 °C 7.6 °C 1011.7 hPa SSW 14.5 km/h 25.7 km/h 97% 0.0 mm OVC
10:51 7.9 °C 7.3 °C 1012.4 hPa South 13.7 km/h 22.2 km/h 96% 0.3 mm SCT
10:55 7.9 °C 7.3 °C 1012.2 hPa SSW 14.5 km/h 24.1 km/h 96% 0.0 mm SCT
11:00 7.9 °C 7.4 °C 1012.2 hPa SSW 14.5 km/h 20.9 km/h 97% 0.0 mm SCT
11:05 7.8 °C 7.4 °C 1012.2 hPa SSW 12.9 km/h 22.5 km/h 97% 0.0 mm SCT
11:10 7.8 °C 7.3 °C 1012.2 hPa SSW 12.9 km/h 22.5 km/h 97% 0.0 mm OVC
11:15 7.8 °C 7.3 °C 1012.2 hPa SSW 11.3 km/h 19.3 km/h 97% 0.0 mm SCT
11:20 7.8 °C 7.3 °C 1012.2 hPa SSW 11.3 km/h 22.5 km/h 97% 0.0 mm BKN
11:25 7.8 °C 7.3 °C 1011.9 hPa SSW 11.3 km/h 16.1 km/h 97% 0.0 mm SCT
11:30 7.8 °C 7.3 °C 1011.9 hPa SSW 11.3 km/h 20.9 km/h 97% 0.0 mm BKN
11:35 7.8 °C 7.3 °C 1011.9 hPa SSW 9.7 km/h 20.9 km/h 97% 0.0 mm SCT
11:40 7.8 °C 7.3 °C 1012.2 hPa SSW 9.7 km/h 12.9 km/h 97% 0.0 mm BKN
11:45 7.8 °C 7.2 °C 1012.2 hPa SSW 9.7 km/h 19.3 km/h 96% 0.0 mm SCT
11:50 7.8 °C 7.2 °C 1012.2 hPa South 9.7 km/h 14.5 km/h 96% 0.0 mm BKN
11:55 7.8 °C 7.2 °C 1011.9 hPa South 9.7 km/h 16.1 km/h 96% 0.0 mm BKN
12:00 7.9 °C 7.3 °C 1011.9 hPa SSW 9.7 km/h 17.7 km/h 96% 0.0 mm SCT
12:05 7.9 °C 7.3 °C 1011.9 hPa SSW 9.7 km/h 11.3 km/h 96% 0.0 mm BKN
12:10 7.9 °C 7.3 °C 1012.1 hPa SSW 9.7 km/h 11.3 km/h 96% 0.0 mm RA
12:15 7.9 °C 7.3 °C 1012.1 hPa SSW 8.0 km/h 11.3 km/h 96% 23.4 mm RA
12:20 8.1 °C 7.5 °C 1012.1 hPa SSW 8.0 km/h 19.3 km/h 96% 0.3 mm RA
12:25 8.2 °C 7.6 °C 1011.8 hPa SSW 8.0 km/h 14.5 km/h 96% 0.0 mm BKN
12:30 8.4 °C 7.8 °C 1011.8 hPa SSW 8.4 km/h 16.7 km/h 96% 23.4 mm BKN
12:35 8.4 °C 7.8 °C 1011.8 hPa SSW 11.3 km/h 19.3 km/h 96% 0.0 mm BKN
12:40 8.5 °C 7.8 °C 1011.6 hPa SSW 11.3 km/h 19.3 km/h 95% 0.0 mm BKN
12:45 8.7 °C 8.0 °C 1011.6 hPa SSW 11.3 km/h 16.1 km/h 95% 0.0 mm BKN
12:50 8.9 °C 8.0 °C 1011.6 hPa South 11.3 km/h 19.3 km/h 94% 0.0 mm BKN
12:55 8.9 °C 7.9 °C 1011.4 hPa South 11.3 km/h 16.1 km/h 93% 0.0 mm BKN
13:00 9.1 °C 8.0 °C 1011.4 hPa SSW 11.3 km/h 17.7 km/h 93% 0.0 mm BKN
13:05 9.1 °C 7.9 °C 1011.4 hPa SSW 10.3 km/h 18.5 km/h 92% 23.4 mm BKN
13:10 9.1 °C 7.9 °C 1011.2 hPa SSW 11.3 km/h 20.9 km/h 92% 0.0 mm BKN
13:15 9.2 °C 7.8 °C 1011.2 hPa SSW 12.9 km/h 20.9 km/h 91% 0.0 mm BKN
13:20 9.2 °C 7.8 °C 1011.2 hPa SSW 12.9 km/h 19.3 km/h 91% 0.0 mm BKN
13:25 9.2 °C 7.8 °C 1011.2 hPa SSW 11.3 km/h 20.9 km/h 91% 0.0 mm BKN
13:30 9.3 °C 7.7 °C 1011.2 hPa SSW 11.3 km/h 19.3 km/h 90% 0.0 mm BKN
13:35 9.4 °C 7.8 °C 1011.2 hPa SSW 11.3 km/h 19.3 km/h 90% 0.0 mm BKN
13:40 9.4 °C 7.7 °C 1011.0 hPa SSW 11.3 km/h 20.9 km/h 89% 0.0 mm BKN
13:45 9.5 °C 7.8 °C 1011.0 hPa SSW 11.3 km/h 20.9 km/h 89% 0.0 mm BKN
13:50 9.6 °C 7.9 °C 1011.0 hPa SW 11.3 km/h 12.9 km/h 89% 0.0 mm FEW
13:55 9.7 °C 8.0 °C 1010.9 hPa WSW 8.0 km/h 11.3 km/h 89% 0.0 mm FEW
14:00 9.8 °C 8.1 °C 1010.9 hPa SSW 8.0 km/h 14.5 km/h 89% 0.0 mm BKN
14:05 9.8 °C 7.9 °C 1010.9 hPa South 9.7 km/h 20.9 km/h 88% 0.0 mm FEW
14:10 9.6 °C 7.6 °C 1010.8 hPa SSW 9.7 km/h 20.9 km/h 87% 0.0 mm FEW
14:15 9.6 °C 7.6 °C 1010.8 hPa SSW 12.2 km/h 20.4 km/h 87% 0.5 mm RA
14:20 9.7 °C 7.7 °C 1010.8 hPa SSW 12.9 km/h 19.3 km/h 87% 0.0 mm RA
14:25 9.8 °C 7.6 °C 1010.8 hPa SSW 12.9 km/h 19.3 km/h 86% 0.0 mm BKN
14:30 9.9 °C 7.7 °C 1010.8 hPa SSW 12.9 km/h 19.3 km/h 86% 0.0 mm FEW
14:35 10.1 °C 7.9 °C 1010.8 hPa SSW 11.3 km/h 19.3 km/h 86% 0.0 mm FEW
14:40 10.2 °C 7.8 °C 1010.7 hPa SSW 11.3 km/h 19.3 km/h 85% 0.0 mm FEW
14:45 10.2 °C 7.6 °C 1010.7 hPa SSW 11.3 km/h 19.3 km/h 84% 0.0 mm FEW
14:50 10.4 °C 8.0 °C 1010.7 hPa South 11.3 km/h 16.1 km/h 85% 0.0 mm FEW
14:55 10.4 °C 7.7 °C 1010.8 hPa South 11.3 km/h 20.9 km/h 83% 0.0 mm FEW
15:00 10.6 °C 7.8 °C 1010.8 hPa SSW 11.3 km/h 19.3 km/h 83% 0.0 mm BKN
15:05 10.8 °C 8.0 °C 1010.8 hPa SSW 12.9 km/h 17.7 km/h 83% 0.0 mm FEW
15:10 10.9 °C 8.1 °C 1010.7 hPa SSW 12.9 km/h 14.5 km/h 83% 0.0 mm FEW
15:15 11.1 °C 8.1 °C 1010.7 hPa SSW 9.7 km/h 20.9 km/h 82% 0.0 mm FEW
15:20 11.1 °C 8.2 °C 1010.7 hPa SSW 9.7 km/h 16.1 km/h 82% 0.0 mm FEW
15:25 11.2 °C 7.9 °C 1010.9 hPa SSW 11.3 km/h 19.3 km/h 80% 0.0 mm FEW
15:30 11.2 °C 7.9 °C 1010.9 hPa SSW 11.3 km/h 20.9 km/h 80% 0.0 mm FEW
15:35 11.3 °C 8.0 °C 1010.9 hPa SSW 11.3 km/h 16.1 km/h 80% 0.0 mm FEW
15:40 11.3 °C 8.0 °C 1010.8 hPa SW 11.3 km/h 14.5 km/h 80% 0.0 mm FEW
15:45 11.4 °C 7.9 °C 1010.8 hPa SSW 8.0 km/h 12.9 km/h 79% 0.0 mm FEW
15:50 11.5 °C 8.2 °C 1010.8 hPa SSW 8.0 km/h 12.9 km/h 80% 0.0 mm FEW
15:55 11.6 °C 7.9 °C 1011.2 hPa SSW 9.7 km/h 16.1 km/h 78% 0.0 mm FEW
16:00 11.6 °C 7.9 °C 1011.2 hPa SSW 9.7 km/h 12.9 km/h 78% 0.0 mm FEW
16:05 11.6 °C 8.1 °C 1011.2 hPa SW 8.0 km/h 14.5 km/h 79% 0.0 mm FEW
16:10 11.6 °C 7.9 °C 1011.0 hPa SW 8.0 km/h 12.9 km/h 78% 0.0 mm FEW
16:15 11.6 °C 7.9 °C 1011.0 hPa SSW 8.0 km/h 12.9 km/h 78% 0.3 mm RA
16:20 11.6 °C 7.9 °C 1011.0 hPa South 8.0 km/h 12.9 km/h 78% 0.3 mm RA
16:25 11.6 °C 7.9 °C 1011.1 hPa SSW 8.0 km/h 11.3 km/h 78% 0.0 mm SCT
16:30 11.6 °C 7.9 °C 1011.1 hPa SSW 8.0 km/h 8.0 km/h 78% 0.0 mm SCT
16:35 11.7 °C 8.0 °C 1011.1 hPa SSW 4.8 km/h 9.7 km/h 78% 0.0 mm SCT
16:40 11.7 °C 8.2 °C 1011.3 hPa SW 4.8 km/h 4.8 km/h 79% 0.0 mm SCT
16:45 11.7 °C 8.0 °C 1011.3 hPa SW 3.2 km/h 9.7 km/h 78% 0.0 mm SCT
16:50 11.8 °C 8.1 °C 1011.3 hPa SW 3.2 km/h 9.7 km/h 78% 0.0 mm SCT
16:55 11.8 °C 8.1 °C 1011.5 hPa SW 3.2 km/h 9.7 km/h 78% 0.0 mm SCT
17:00 11.8 °C 8.1 °C 1011.5 hPa WSW 3.2 km/h 9.7 km/h 78% 0.0 mm SCT
17:05 11.8 °C 8.1 °C 1011.5 hPa SW 4.8 km/h 9.7 km/h 78% 0.0 mm SCT
17:10 11.8 °C 8.1 °C 1011.7 hPa SSW 4.8 km/h 9.7 km/h 78% 0.0 mm SCT
17:15 11.8 °C 7.9 °C 1011.7 hPa SSE 4.8 km/h 9.7 km/h 77% 0.0 mm SCT
17:20 11.8 °C 7.9 °C 1011.7 hPa SSE 4.8 km/h 12.9 km/h 77% 0.0 mm FEW
17:25 11.8 °C 8.1 °C 1012.0 hPa South 8.0 km/h 11.3 km/h 78% 0.0 mm FEW
17:30 11.7 °C 7.8 °C 1012.0 hPa SW 8.0 km/h 9.7 km/h 77% 0.0 mm FEW
17:35 11.7 °C 8.0 °C 1012.0 hPa SW 8.0 km/h 9.7 km/h 78% 0.0 mm FEW
17:40 11.6 °C 7.9 °C 1012.2 hPa SW 8.0 km/h 8.0 km/h 78% 0.0 mm FEW
17:45 11.6 °C 7.9 °C 1012.2 hPa SW 4.8 km/h 8.0 km/h 78% 0.0 mm FEW
17:50 11.6 °C 7.9 °C 1012.2 hPa SW 4.8 km/h 8.0 km/h 78% 0.0 mm BKN
17:55 11.6 °C 7.9 °C 1012.5 hPa SW 3.2 km/h 5.6 km/h 78% 0.0 mm BKN
18:00 11.5 °C 7.8 °C 1012.5 hPa SW 3.2 km/h 8.0 km/h 78% 0.0 mm FEW
18:05 11.5 °C 7.8 °C 1012.5 hPa SSW 3.2 km/h 6.4 km/h 78% 0.0 mm BKN
18:10 11.5 °C 7.8 °C 1012.7 hPa SSW 3.2 km/h 8.0 km/h 78% 0.0 mm BKN
18:15 11.5 °C 7.8 °C 1012.7 hPa SSW 3.2 km/h 6.4 km/h 78% 0.0 mm BKN
18:20 11.5 °C 8.0 °C 1012.7 hPa SSW 3.2 km/h 3.2 km/h 79% 0.0 mm BKN
18:25 11.6 °C 8.1 °C 1012.9 hPa SSW 1.6 km/h   79% 0.0 mm BKN
18:30 11.5 °C 8.2 °C 1012.9 hPa SSW 1.6 km/h   80% 0.0 mm BKN
18:35 11.5 °C 8.2 °C 1012.9 hPa Calm     80% 0.0 mm BKN
18:40 11.4 °C 8.1 °C 1013.0 hPa Calm   6.4 km/h 80% 0.3 mm RA
18:45 11.4 °C 8.3 °C 1013.0 hPa SSE 3.2 km/h 8.0 km/h 81% 0.0 mm RA
18:50 11.3 °C 8.2 °C 1013.0 hPa SE 3.2 km/h 8.0 km/h 81% 0.0 mm BKN
18:55 11.2 °C 8.2 °C 1013.1 hPa SE 3.2 km/h 8.0 km/h 82% 0.0 mm BKN
19:00 11.1 °C 8.3 °C 1013.1 hPa SE 3.2 km/h 9.7 km/h 83% 0.0 mm SCT
19:05 11.0 °C 8.2 °C 1013.1 hPa South 4.8 km/h 8.0 km/h 83% 0.0 mm BKN
19:10 10.9 °C 8.3 °C 1013.3 hPa SSW 4.8 km/h 8.0 km/h 84% 0.0 mm BKN
19:15 10.8 °C 8.2 °C 1013.3 hPa South 3.2 km/h 8.0 km/h 84% 0.0 mm BKN
19:20 10.8 °C 8.4 °C 1013.3 hPa South 3.2 km/h 8.0 km/h 85% 0.0 mm BKN
19:25 10.7 °C 8.3 °C 1013.5 hPa South 3.2 km/h 8.0 km/h 85% 0.0 mm BKN
19:30 10.7 °C 8.3 °C 1013.5 hPa South 3.2 km/h 8.0 km/h 85% 0.0 mm BKN
19:35 10.7 °C 8.3 °C 1013.5 hPa SSE 3.2 km/h 8.0 km/h 85% 0.0 mm BKN
19:40 10.7 °C 8.3 °C 1013.7 hPa SSE 3.2 km/h 3.2 km/h 85% 0.0 mm BKN
19:45 10.7 °C 8.3 °C 1013.7 hPa Calm     85% 0.0 mm BKN
19:50 10.6 °C 8.2 °C 1013.7 hPa Calm   8.0 km/h 85% 0.0 mm OVC
19:55 10.6 °C 8.3 °C 1014.0 hPa SSE 3.2 km/h 8.0 km/h 86% 0.0 mm BKN
20:00 10.6 °C 8.3 °C 1014.0 hPa SSE 3.2 km/h   86% 0.0 mm BKN
20:05 10.5 °C 8.4 °C 1014.0 hPa Calm     87% 0.0 mm BKN
20:10 10.5 °C 8.4 °C 1014.2 hPa Calm     87% 0.0 mm OVC
20:15 10.5 °C 8.6 °C 1014.2 hPa Calm     88% 0.0 mm BKN
20:20 10.4 °C 8.5 °C 1014.2 hPa Calm     88% 0.0 mm BKN
20:25 10.4 °C 8.5 °C 1014.3 hPa Calm     88% 0.0 mm BKN
20:30 10.4 °C 8.5 °C 1014.3 hPa Calm     88% 0.0 mm BKN
20:35 10.4 °C 8.7 °C 1014.3 hPa Calm     89% 0.0 mm BKN
20:40 10.3 °C 8.6 °C 1014.6 hPa Calm     89% 0.0 mm BKN
20:45 10.3 °C 8.6 °C 1014.6 hPa Calm   1.6 km/h 89% 0.0 mm BKN
20:50 10.3 °C 8.7 °C 1014.6 hPa Calm   1.6 km/h 90% 0.0 mm BKN
20:55 10.2 °C 8.6 °C 1014.6 hPa Calm   8.0 km/h 90% 0.0 mm BKN
21:00 10.1 °C 8.6 °C 1014.6 hPa Calm   8.0 km/h 90% 0.0 mm BKN
21:05 10.1 °C 8.6 °C 1014.6 hPa SE 3.2 km/h 3.7 km/h 90% 0.0 mm BKN
21:10 10.0 °C 8.4 °C 1014.8 hPa SE 3.2 km/h 4.8 km/h 90% 0.0 mm BKN
21:15 9.9 °C 8.5 °C 1014.8 hPa SE 2.9 km/h 7.4 km/h 91% 0.0 mm BKN
21:20 9.9 °C 8.5 °C 1014.8 hPa SSE 3.2 km/h 8.0 km/h 91% 0.0 mm BKN
21:25 9.9 °C 8.5 °C 1014.9 hPa South 3.2 km/h 8.0 km/h 91% 0.0 mm BKN
21:30 9.8 °C 8.4 °C 1014.9 hPa SSW 3.2 km/h 8.0 km/h 91% 0.0 mm BKN
21:35 9.8 °C 8.4 °C 1014.9 hPa SSW 3.2 km/h 8.0 km/h 91% 0.0 mm BKN
21:40 9.8 °C 8.4 °C 1014.9 hPa SSW 3.2 km/h   91% 0.0 mm BKN
21:45 9.8 °C 8.6 °C 1014.9 hPa Calm     92% 0.0 mm BKN
21:50 9.8 °C 8.6 °C 1014.9 hPa Calm   8.0 km/h 92% 0.0 mm -RA
21:55 9.8 °C 8.6 °C 1015.2 hPa SSE 3.2 km/h 9.7 km/h 92% 0.3 mm -RA
22:00 9.7 °C 8.5 °C 1015.2 hPa SSE 3.2 km/h 9.7 km/h 92% 0.0 mm RA
22:05 9.7 °C 8.4 °C 1015.2 hPa SSE 8.0 km/h 9.7 km/h 92% 0.0 mm BKN
22:10 9.6 °C 8.4 °C 1015.2 hPa South 8.0 km/h 9.7 km/h 92% 0.0 mm -RA
22:15 9.6 °C 8.5 °C 1015.2 hPa South 4.8 km/h 9.7 km/h 93% 0.0 mm BKN
22:20 9.6 °C 8.5 °C 1015.2 hPa South 4.8 km/h 9.7 km/h 93% 0.0 mm BKN
22:25 9.5 °C 8.4 °C 1015.4 hPa South 6.4 km/h 9.3 km/h 93% 0.3 mm BKN
22:30 9.4 °C 8.3 °C 1015.4 hPa South 8.0 km/h 9.7 km/h 93% 0.0 mm BKN
22:35 9.4 °C 8.3 °C 1015.4 hPa South 8.0 km/h 11.3 km/h 93% 0.0 mm BKN
22:40 9.4 °C 8.3 °C 1015.6 hPa South 8.0 km/h 8.0 km/h 93% 0.0 mm BKN
22:45 9.4 °C 8.3 °C 1015.6 hPa SSW 4.8 km/h 4.8 km/h 93% 0.0 mm BKN
22:50 9.4 °C 8.3 °C 1015.6 hPa SW 4.8 km/h 8.0 km/h 93% 0.0 mm BKN
22:55 9.4 °C 8.5 °C 1015.6 hPa SW 3.2 km/h 7.4 km/h 94% 0.0 mm BKN
23:00 9.3 °C 8.4 °C 1015.6 hPa SW 3.2 km/h 8.0 km/h 94% 0.0 mm BKN
23:05 9.3 °C 8.4 °C 1015.6 hPa SW 3.2 km/h 8.0 km/h 94% 0.0 mm BKN
23:10 9.3 °C 8.4 °C 1015.7 hPa SW 3.2 km/h 8.0 km/h 94% 0.0 mm BKN
23:15 9.3 °C 8.4 °C 1015.7 hPa WSW 3.2 km/h 4.8 km/h 94% 0.0 mm BKN
23:20 9.3 °C 8.4 °C 1015.7 hPa WSW 3.2 km/h 1.6 km/h 94% 0.0 mm BKN
23:25 9.3 °C 8.4 °C 1015.9 hPa South 2.3 km/h 11.1 km/h 94% 0.0 mm BKN
23:30 9.3 °C 8.4 °C 1015.9 hPa South 1.6 km/h 11.3 km/h 94% 0.0 mm BKN
23:35 9.2 °C 8.3 °C 1015.9 hPa SSW 8.0 km/h 14.5 km/h 94% 0.0 mm BKN
23:40 9.2 °C 8.3 °C 1016.2 hPa SSW 8.0 km/h 12.9 km/h 94% 0.0 mm RA
23:45 9.2 °C 8.3 °C 1016.2 hPa SSW 8.0 km/h 11.3 km/h 94% 0.8 mm RA
23:50 9.2 °C 8.3 °C 1016.2 hPa SW 8.4 km/h 7.4 km/h 94% 0.8 mm SCT
23:55 9.2 °C 8.3 °C 1016.2 hPa WSW 5.0 km/h 7.4 km/h 94% 0.8 mm SCT
Murcia-Puente Tocinos, España
Compliments of Weather Underground - 2.75 mb

La estación de MeteoMurcia.com, publica sus datos en los siguientes proyectos:

Weather Underground PWS IMURCIAP2 Meteoclimatic www.awekas.at

W3Counter
Web Analytics